Time;durP1;ratioP1;P1;durP2;ratioP2;P2;SDS_P1;SDS_P2;PMS_P1;PMS_P2;Temp;Humidity;BMP_temperature;BMP_pressure;BME280_temperature;BME280_humidity;BME280_pressure;Samples;Min_cycle;Max_cycle;Signal;HPM_P1;HPM_P2
2023/04/10 00:02:25;;;;;;;35.70;18.33;;;7.00;99.90;;;;;;5094854;28;20426;-69
2023/04/10 00:04:51;;;;;;;29.70;19.43;;;7.00;99.90;;;;;;5077951;28;20616;-69
2023/04/10 00:07:17;;;;;;;36.27;21.93;;;6.90;99.90;;;;;;5095949;28;20188;-69
2023/04/10 00:09:42;;;;;;;32.67;19.57;;;6.90;99.90;;;;;;5096168;28;20161;-69
2023/04/10 00:12:10;;;;;;;32.97;19.87;;;6.90;99.90;;;;;;5095118;28;20562;-69
2023/04/10 00:14:36;;;;;;;35.47;20.27;;;7.00;99.90;;;;;;5095746;28;20245;-69
2023/04/10 00:17:02;;;;;;;36.80;19.67;;;7.00;99.90;;;;;;5095893;28;20449;-69
2023/04/10 00:19:27;;;;;;;35.73;20.50;;;7.00;99.90;;;;;;5095808;28;20404;-69
2023/04/10 00:21:54;;;;;;;33.23;19.50;;;6.90;99.90;;;;;;5094492;28;20272;-69
2023/04/10 00:24:20;;;;;;;36.40;19.83;;;6.80;99.90;;;;;;5095920;28;20166;-70
2023/04/10 00:26:46;;;;;;;34.20;19.60;;;6.90;99.90;;;;;;5077431;28;20422;-69
2023/04/10 00:29:11;;;;;;;26.97;19.10;;;6.90;99.90;;;;;;5094993;28;20162;-69
2023/04/10 00:31:37;;;;;;;33.20;18.87;;;6.90;99.90;;;;;;5094673;28;20197;-69
2023/04/10 00:34:03;;;;;;;36.60;19.67;;;6.90;99.90;;;;;;5095615;28;20169;-69
2023/04/10 00:36:30;;;;;;;45.83;20.17;;;6.90;99.90;;;;;;5095466;28;20622;-69
2023/04/10 00:38:56;;;;;;;30.77;19.30;;;6.90;99.90;;;;;;5095137;28;20211;-69
2023/04/10 00:41:22;;;;;;;30.33;18.60;;;6.90;99.90;;;;;;5094391;28;20400;-69
2023/04/10 00:43:48;;;;;;;36.90;19.13;;;6.90;99.90;;;;;;5095220;28;20888;-69
2023/04/10 00:46:14;;;;;;;36.60;20.63;;;6.90;99.90;;;;;;5095533;28;20418;-69
2023/04/10 00:48:40;;;;;;;35.10;18.87;;;6.90;99.90;;;;;;5095209;28;20154;-69
2023/04/10 00:51:06;;;;;;;28.50;19.23;;;6.90;99.90;;;;;;5076219;28;20378;-70
2023/04/10 00:53:32;;;;;;;35.70;20.50;;;6.90;99.90;;;;;;5095060;28;21016;-69
2023/04/10 00:56:00;;;;;;;32.03;18.87;;;6.90;99.90;;;;;;5094787;28;20402;-69
2023/04/10 00:58:26;;;;;;;29.00;17.80;;;6.90;99.90;;;;;;5094971;28;20174;-69
2023/04/10 01:00:51;;;;;;;31.57;19.47;;;6.90;99.90;;;;;;5094156;28;20391;-69
2023/04/10 01:03:20;;;;;;;40.40;19.60;;;6.90;99.90;;;;;;5094737;28;20201;-69
2023/04/10 01:06:01;;;;;;;32.37;18.43;;;6.90;99.90;;;;;;5094651;28;20176;-70
2023/04/10 01:09:07;;;;;;;34.70;19.67;;;6.90;99.90;;;;;;5094803;28;20400;-70
2023/04/10 01:11:53;;;;;;;39.10;19.80;;;6.80;99.90;;;;;;5082807;28;20455;-69
2023/04/10 01:14:35;;;;;;;29.30;18.33;;;6.80;99.90;;;;;;5094671;28;20394;-69
2023/04/10 01:17:10;;;;;;;37.43;19.67;;;6.80;99.90;;;;;;5094578;28;20455;-69
2023/04/10 01:19:48;;;;;;;34.87;20.20;;;6.80;99.90;;;;;;5076543;28;20398;-69
2023/04/10 01:22:16;;;;;;;33.50;18.73;;;6.90;99.90;;;;;;5075867;28;20409;-70
2023/04/10 01:24:59;;;;;;;37.47;20.93;;;6.90;99.90;;;;;;5076383;28;20404;-69
2023/04/10 01:27:56;;;;;;;34.93;20.93;;;6.80;99.90;;;;;;5094332;28;20401;-70
2023/04/10 01:30:22;;;;;;;35.83;19.83;;;6.80;99.90;;;;;;5093644;28;20378;-70
2023/04/10 01:32:49;;;;;;;42.50;20.53;;;6.80;99.90;;;;;;5093754;28;20474;-69
2023/04/10 01:35:16;;;;;;;40.27;20.97;;;6.80;99.90;;;;;;5076151;28;20411;-69
2023/04/10 01:37:46;;;;;;;34.60;18.97;;;6.80;99.90;;;;;;5094318;28;20408;-69
2023/04/10 01:40:15;;;;;;;31.07;20.50;;;6.70;99.90;;;;;;5075008;28;20461;-69
2023/04/10 01:42:50;;;;;;;34.40;20.43;;;6.80;99.90;;;;;;5093735;28;20938;-69
2023/04/10 01:45:22;;;;;;;38.73;19.90;;;6.70;99.90;;;;;;5094112;28;20408;-69
2023/04/10 01:47:48;;;;;;;35.83;17.40;;;6.70;99.90;;;;;;5094091;28;20439;-69
2023/04/10 01:50:15;;;;;;;35.87;18.17;;;6.70;99.90;;;;;;5093299;28;20854;-69
2023/04/10 01:52:42;;;;;;;31.30;20.37;;;6.70;99.90;;;;;;5093490;28;20681;-69
2023/04/10 01:55:09;;;;;;;31.67;19.00;;;6.70;99.90;;;;;;5075894;28;21098;-69
2023/04/10 01:57:37;;;;;;;41.53;20.00;;;6.60;99.90;;;;;;5093864;28;20432;-69
2023/04/10 02:00:03;;;;;;;30.40;18.23;;;6.70;99.90;;;;;;5093398;28;20395;-69
2023/04/10 02:02:33;;;;;;;35.73;20.43;;;6.70;99.90;;;;;;5093339;28;20416;-69
2023/04/10 02:04:59;;;;;;;34.83;18.97;;;6.70;99.90;;;;;;5093672;28;20457;-70
2023/04/10 02:07:30;;;;;;;31.80;18.70;;;6.60;99.90;;;;;;5093424;28;20435;-69
2023/04/10 02:09:55;;;;;;;33.90;19.50;;;6.70;99.90;;;;;;5093317;28;20749;-69
2023/04/10 02:12:30;;;;;;;32.93;17.93;;;6.70;99.90;;;;;;5092970;28;20496;-70
2023/04/10 02:15:00;;;;;;;34.13;18.60;;;6.60;99.90;;;;;;5093792;28;20161;-69
2023/04/10 02:17:28;;;;;;;26.57;18.70;;;6.60;99.90;;;;;;5093585;28;20453;-70
2023/04/10 02:19:58;;;;;;;30.67;19.40;;;6.60;99.90;;;;;;5093191;28;20404;-70
2023/04/10 02:22:25;;;;;;;30.47;17.37;;;6.60;99.90;;;;;;5092778;28;20477;-69
2023/04/10 02:24:52;;;;;;;26.20;17.03;;;6.60;99.90;;;;;;5093327;28;20412;-69
2023/04/10 02:27:35;;;;;;;36.50;18.73;;;6.60;99.90;;;;;;5093427;28;20415;-69
2023/04/10 02:30:04;;;;;;;33.23;18.43;;;6.60;99.90;;;;;;5093008;28;20396;-69
2023/04/10 02:32:32;;;;;;;34.80;18.17;;;6.60;99.90;;;;;;5093316;28;20469;-70
2023/04/10 02:34:58;;;;;;;34.67;20.13;;;6.60;99.90;;;;;;5093517;28;20394;-69
2023/04/10 02:37:23;;;;;;;27.20;17.07;;;6.50;99.90;;;;;;5093270;28;20395;-69
2023/04/10 02:39:49;;;;;;;32.73;17.50;;;6.50;99.90;;;;;;5092976;28;20170;-69
2023/04/10 02:42:15;;;;;;;27.67;19.57;;;6.50;99.90;;;;;;5074523;28;20193;-69
2023/04/10 02:44:40;;;;;;;33.40;19.83;;;6.50;99.90;;;;;;5092926;28;20759;-69
2023/04/10 02:47:06;;;;;;;32.07;17.03;;;6.50;99.90;;;;;;5093065;28;20209;-69
2023/04/10 02:49:34;;;;;;;28.70;17.90;;;6.50;99.90;;;;;;5093302;28;20200;-69
2023/04/10 02:52:01;;;;;;;35.93;19.50;;;6.50;99.90;;;;;;5091704;28;20185;-69
2023/04/10 02:54:26;;;;;;;33.30;16.50;;;6.50;99.90;;;;;;5093117;28;20753;-69
2023/04/10 02:56:52;;;;;;;32.10;17.77;;;6.50;99.90;;;;;;5093248;28;20407;-69
2023/04/10 02:59:18;;;;;;;31.90;19.13;;;6.50;99.90;;;;;;5092937;28;20395;-69
2023/04/10 03:01:47;;;;;;;33.90;18.30;;;6.40;99.90;;;;;;5090467;28;20196;-70
2023/04/10 03:04:12;;;;;;;28.73;19.50;;;6.40;99.90;;;;;;5092996;28;20177;-70
2023/04/10 03:06:38;;;;;;;32.97;20.30;;;6.40;99.90;;;;;;5092728;28;20953;-70
2023/04/10 03:09:04;;;;;;;28.73;18.73;;;6.40;99.90;;;;;;5093038;28;20197;-69
2023/04/10 03:11:30;;;;;;;29.97;19.37;;;6.30;99.90;;;;;;5091943;28;20193;-69
2023/04/10 03:13:59;;;;;;;28.10;21.13;;;6.30;99.90;;;;;;5092662;28;20945;-69
2023/04/10 03:16:25;;;;;;;32.77;19.30;;;6.30;99.90;;;;;;5092833;28;20168;-69
2023/04/10 03:18:52;;;;;;;28.87;17.63;;;6.30;99.90;;;;;;5092768;28;20407;-69
2023/04/10 03:21:18;;;;;;;26.30;17.30;;;6.40;99.90;;;;;;5092009;28;20400;-69
2023/04/10 03:23:43;;;;;;;33.17;17.47;;;6.40;99.90;;;;;;5092785;28;20424;-69
2023/04/10 03:26:09;;;;;;;31.87;18.50;;;6.40;99.90;;;;;;5092791;28;20246;-70
2023/04/10 03:28:35;;;;;;;31.37;19.03;;;6.40;99.90;;;;;;5092731;28;20188;-69
2023/04/10 03:31:02;;;;;;;31.43;17.20;;;6.40;99.90;;;;;;5073816;28;20597;-69
2023/04/10 03:33:28;;;;;;;27.07;17.00;;;6.40;99.90;;;;;;5092639;28;20471;-70
2023/04/10 03:35:54;;;;;;;36.67;18.33;;;6.30;99.90;;;;;;5092805;28;20400;-69
2023/04/10 03:38:20;;;;;;;26.63;19.07;;;6.40;99.90;;;;;;5092371;28;20501;-69
2023/04/10 03:40:45;;;;;;;33.43;17.73;;;6.40;99.90;;;;;;5073663;28;20217;-70
2023/04/10 03:43:11;;;;;;;29.27;17.57;;;6.30;99.90;;;;;;5092484;28;20525;-70
2023/04/10 03:45:37;;;;;;;33.03;19.40;;;6.40;99.90;;;;;;5092741;28;20184;-69
2023/04/10 03:48:03;;;;;;;31.10;16.77;;;6.40;99.90;;;;;;5092684;28;20674;-70
2023/04/10 03:50:28;;;;;;;30.20;18.10;;;6.40;99.90;;;;;;5091657;28;20243;-69
2023/04/10 03:52:54;;;;;;;31.33;17.20;;;6.40;99.90;;;;;;5092204;28;20335;-69
2023/04/10 03:55:20;;;;;;;31.10;18.83;;;6.40;99.90;;;;;;5092552;28;20626;-70
2023/04/10 03:57:46;;;;;;;28.90;18.37;;;6.40;99.90;;;;;;5092283;28;20178;-69
2023/04/10 04:00:13;;;;;;;29.77;17.70;;;6.40;99.90;;;;;;5091597;28;20253;-69
2023/04/10 04:02:39;;;;;;;34.00;20.27;;;6.40;99.90;;;;;;5092387;28;20465;-69
2023/04/10 04:05:05;;;;;;;33.40;18.43;;;6.50;99.90;;;;;;5094615;28;20403;-69
2023/04/10 04:07:31;;;;;;;27.77;18.40;;;6.50;99.90;;;;;;5096188;28;20193;-70
2023/04/10 04:09:56;;;;;;;29.87;19.03;;;6.50;99.90;;;;;;5095581;28;20478;-69
2023/04/10 04:12:22;;;;;;;34.50;18.47;;;6.50;99.90;;;;;;5095150;28;20278;-69
2023/04/10 04:14:48;;;;;;;33.77;18.70;;;6.40;99.90;;;;;;5095925;28;20275;-69
2023/04/10 04:17:13;;;;;;;31.80;18.27;;;6.40;99.90;;;;;;5095923;28;20522;-70
2023/04/10 04:19:39;;;;;;;27.20;16.73;;;6.40;99.90;;;;;;5095945;28;20248;-69
2023/04/10 04:22:05;;;;;;;35.43;20.23;;;6.40;99.90;;;;;;5094870;28;20189;-69
2023/04/10 04:24:30;;;;;;;34.07;20.13;;;6.40;1.00;;;;;;5095756;28;20597;-69
2023/04/10 04:26:56;;;;;;;27.10;17.20;;;6.40;1.00;;;;;;5095651;28;20231;-69
2023/04/10 04:29:22;;;;;;;29.00;16.20;;;6.50;1.00;;;;;;5095319;28;20223;-70
2023/04/10 04:31:48;;;;;;;33.10;19.10;;;6.50;1.00;;;;;;5094612;28;20205;-69
2023/04/10 04:34:13;;;;;;;27.60;18.20;;;6.50;1.00;;;;;;5095661;28;20162;-70
2023/04/10 04:36:39;;;;;;;25.33;17.40;;;6.60;1.00;;;;;;5095482;28;20177;-69
2023/04/10 04:39:05;;;;;;;32.30;17.07;;;6.50;99.90;;;;;;5095437;28;20168;-70
2023/04/10 04:41:31;;;;;;;42.30;18.43;;;6.50;99.90;;;;;;5094455;28;20215;-69
2023/04/10 04:44:01;;;;;;;31.57;19.50;;;6.50;99.90;;;;;;5095374;28;20492;-69
2023/04/10 04:46:27;;;;;;;27.00;16.83;;;6.50;99.90;;;;;;5095142;28;20892;-69
2023/04/10 04:48:52;;;;;;;27.27;15.93;;;6.50;99.90;;;;;;5094994;28;20403;-69
2023/04/10 04:51:18;;;;;;;26.33;16.57;;;6.50;1.00;;;;;;5094212;28;20396;-70
2023/04/10 04:53:44;;;;;;;30.43;18.80;;;6.50;99.90;;;;;;5095084;28;20188;-69
2023/04/10 04:56:10;;;;;;;28.97;18.00;;;6.50;99.90;;;;;;5095157;28;20559;-69
2023/04/10 04:58:35;;;;;;;27.07;16.67;;;6.50;99.90;;;;;;5095100;28;20196;-69
2023/04/10 05:01:01;;;;;;;28.23;18.20;;;6.50;99.90;;;;;;5094106;28;20177;-69
2023/04/10 05:03:29;;;;;;;28.33;16.80;;;6.50;99.90;;;;;;5094990;28;20245;-69
2023/04/10 05:05:56;;;;;;;28.73;18.40;;;6.50;99.90;;;;;;5094431;28;20252;-71
2023/04/10 05:08:22;;;;;;;29.50;18.37;;;6.60;99.90;;;;;;5094926;28;20418;-70
2023/04/10 05:10:48;;;;;;;29.47;17.53;;;6.60;99.90;;;;;;5093931;28;20475;-70
2023/04/10 05:13:16;;;;;;;26.10;16.10;;;6.60;99.90;;;;;;5076475;28;20657;-69
2023/04/10 05:15:42;;;;;;;28.87;17.30;;;6.70;99.90;;;;;;5094792;28;20483;-70
2023/04/10 05:18:08;;;;;;;32.20;17.87;;;6.70;99.90;;;;;;5094749;28;20888;-69
2023/04/10 05:20:34;;;;;;;30.50;19.73;;;6.70;99.90;;;;;;5093666;28;20400;-68
2023/04/10 05:23:00;;;;;;;27.60;18.10;;;6.80;99.90;;;;;;5094260;28;20197;-69
2023/04/10 05:25:26;;;;;;;29.77;16.77;;;6.80;99.90;;;;;;5076368;28;20415;-70
2023/04/10 05:27:52;;;;;;;30.37;16.90;;;6.90;99.90;;;;;;5094469;28;20399;-70
2023/04/10 05:30:18;;;;;;;30.30;16.27;;;7.00;99.90;;;;;;5093653;28;20245;-69
2023/04/10 05:32:44;;;;;;;26.27;16.93;;;7.00;99.90;;;;;;5076065;28;20198;-69
2023/04/10 05:35:11;;;;;;;26.77;16.40;;;7.00;99.90;;;;;;5094249;28;20180;-69
2023/04/10 05:37:37;;;;;;;26.00;16.23;;;7.00;99.90;;;;;;5094279;28;20396;-71
2023/04/10 05:40:03;;;;;;;33.83;17.60;;;7.00;99.90;;;;;;5093985;28;21162;-71
2023/04/10 05:42:29;;;;;;;26.07;16.27;;;7.10;99.90;;;;;;5075440;28;20477;-71
2023/04/10 05:44:55;;;;;;;29.40;18.00;;;7.10;99.90;;;;;;5094317;28;20411;-69
2023/04/10 05:47:21;;;;;;;25.73;16.70;;;7.20;99.90;;;;;;5094003;28;20406;-71
2023/04/10 05:49:46;;;;;;;28.87;16.40;;;7.20;99.90;;;;;;5094061;28;20751;-71
2023/04/10 05:52:12;;;;;;;31.20;17.23;;;7.30;99.90;;;;;;5093038;28;20202;-71
2023/04/10 05:54:38;;;;;;;30.23;16.63;;;7.20;99.90;;;;;;5093978;28;20165;-71
2023/04/10 05:57:03;;;;;;;31.93;19.53;;;7.20;99.90;;;;;;5093567;28;20645;-70
2023/04/10 05:59:29;;;;;;;29.47;17.30;;;7.30;99.90;;;;;;5075669;28;20568;-71
2023/04/10 06:01:56;;;;;;;27.87;16.27;;;7.30;99.90;;;;;;5092784;28;20185;-72
2023/04/10 06:04:22;;;;;;;26.90;18.33;;;7.30;99.90;;;;;;5093803;28;20487;-68
2023/04/10 06:06:48;;;;;;;32.23;17.27;;;7.40;99.90;;;;;;5093553;28;20545;-69
2023/04/10 06:09:13;;;;;;;27.30;16.90;;;7.40;99.90;;;;;;5093636;28;20162;-68
2023/04/10 06:11:39;;;;;;;26.77;17.53;;;7.50;99.90;;;;;;5074701;28;20189;-68
2023/04/10 06:14:05;;;;;;;30.83;18.33;;;7.50;99.90;;;;;;5093347;28;20158;-71
2023/04/10 06:16:31;;;;;;;27.97;18.00;;;7.60;99.90;;;;;;5093613;28;20244;-69
2023/04/10 06:18:57;;;;;;;31.37;18.67;;;7.70;99.90;;;;;;5093617;28;20428;-69
2023/04/10 06:21:23;;;;;;;26.80;16.80;;;7.80;99.90;;;;;;5092401;28;20178;-70
2023/04/10 06:23:48;;;;;;;27.07;17.07;;;7.90;99.90;;;;;;5093396;28;20392;-69
2023/04/10 06:26:14;;;;;;;28.33;16.80;;;7.90;99.90;;;;;;5075270;28;20530;-71
2023/04/10 06:28:41;;;;;;;30.60;16.90;;;7.90;99.90;;;;;;5074900;28;20176;-70
2023/04/10 06:31:06;;;;;;;25.63;17.30;;;8.00;99.90;;;;;;5092293;28;20403;-71
2023/04/10 06:33:34;;;;;;;23.53;16.23;;;8.00;99.90;;;;;;5093113;28;20459;-69
2023/04/10 06:36:00;;;;;;;29.10;17.40;;;8.10;99.90;;;;;;5093259;28;20876;-69
2023/04/10 06:38:26;;;;;;;22.47;14.77;;;8.10;99.90;;;;;;5093229;28;20435;-70
2023/04/10 06:40:52;;;;;;;30.43;17.80;;;8.20;99.90;;;;;;5092530;28;20388;-69
2023/04/10 06:43:18;;;;;;;26.47;16.73;;;8.20;99.90;;;;;;5093072;28;20451;-70
2023/04/10 06:45:44;;;;;;;29.70;17.50;;;8.20;99.90;;;;;;5093101;28;20175;-70
2023/04/10 06:48:10;;;;;;;22.50;17.03;;;8.20;99.90;;;;;;5093213;28;20649;-70
2023/04/10 06:50:36;;;;;;;30.93;17.40;;;8.20;99.90;;;;;;5091984;28;20419;-70
2023/04/10 06:53:02;;;;;;;26.53;17.00;;;8.30;99.90;;;;;;5093007;28;20975;-70
2023/04/10 06:55:28;;;;;;;25.03;16.47;;;8.30;99.90;;;;;;5093142;28;20290;-69
2023/04/10 06:57:55;;;;;;;34.67;18.40;;;8.40;99.90;;;;;;5092991;28;20178;-70
2023/04/10 07:00:21;;;;;;;25.97;17.07;;;8.40;99.90;;;;;;5092250;28;20404;-71
2023/04/10 07:02:47;;;;;;;27.30;17.37;;;8.40;99.90;;;;;;5092924;28;20398;-70
2023/04/10 07:05:14;;;;;;;30.67;18.10;;;8.40;99.90;;;;;;5092801;28;20410;-69
2023/04/10 07:07:40;;;;;;;29.47;17.67;;;8.50;99.90;;;;;;5092772;28;20397;-70
2023/04/10 07:10:07;;;;;;;27.87;17.47;;;8.60;99.90;;;;;;5091846;28;20405;-70
2023/04/10 07:12:33;;;;;;;29.33;17.70;;;8.60;99.90;;;;;;5092785;28;20454;-70
2023/04/10 07:14:59;;;;;;;30.67;17.70;;;8.70;99.90;;;;;;5093437;28;20889;-69
2023/04/10 07:17:25;;;;;;;31.70;17.80;;;8.70;99.90;;;;;;5092877;28;20399;-71
2023/04/10 07:19:50;;;;;;;29.43;17.90;;;8.70;99.90;;;;;;5074396;28;20220;-70
2023/04/10 07:22:16;;;;;;;30.63;18.97;;;8.80;99.90;;;;;;5092063;28;20412;-70
2023/04/10 07:24:43;;;;;;;32.83;17.33;;;8.80;99.90;;;;;;5092529;28;20177;-69
2023/04/10 07:27:08;;;;;;;28.60;18.00;;;8.90;99.90;;;;;;5074616;28;20173;-70
2023/04/10 07:29:34;;;;;;;28.83;17.27;;;8.90;99.90;;;;;;5092835;28;20896;-71
2023/04/10 07:32:00;;;;;;;27.67;17.37;;;8.90;99.90;;;;;;5091649;28;20625;-71
2023/04/10 07:34:26;;;;;;;21.70;16.17;;;9.00;99.90;;;;;;5092564;28;20166;-70
2023/04/10 07:36:52;;;;;;;26.70;16.30;;;9.00;99.90;;;;;;5092744;28;20161;-69
2023/04/10 07:39:17;;;;;;;23.93;16.10;;;9.20;99.90;;;;;;5093826;28;20204;-70
2023/04/10 07:41:43;;;;;;;23.70;15.87;;;9.30;99.90;;;;;;5095656;28;20926;-70
2023/04/10 07:44:10;;;;;;;28.33;17.30;;;9.30;99.90;;;;;;5096191;28;20240;-70
2023/04/10 07:46:35;;;;;;;26.63;16.60;;;9.40;99.90;;;;;;5096411;28;20374;-71
2023/04/10 07:49:01;;;;;;;29.93;18.43;;;9.60;99.90;;;;;;5078152;28;20734;-70
2023/04/10 07:51:28;;;;;;;26.90;18.03;;;9.70;99.90;;;;;;5095278;28;20328;-71
2023/04/10 07:53:53;;;;;;;30.60;16.70;;;9.70;99.90;;;;;;5096244;28;20481;-70
2023/04/10 07:56:20;;;;;;;26.37;17.60;;;9.80;99.90;;;;;;5096226;28;20443;-70
2023/04/10 07:58:46;;;;;;;24.10;17.03;;;9.90;99.90;;;;;;5096227;28;20168;-70
2023/04/10 08:01:12;;;;;;;27.57;16.83;;;10.00;99.90;;;;;;5095214;28;20472;-70
2023/04/10 08:03:42;;;;;;;28.43;17.30;;;10.10;99.90;;;;;;5095736;28;20492;-69
2023/04/10 08:06:09;;;;;;;26.70;18.37;;;10.20;99.90;;;;;;5095937;28;20430;-71
2023/04/10 08:08:36;;;;;;;23.07;16.17;;;10.30;99.90;;;;;;5095974;28;20884;-69
2023/04/10 08:11:07;;;;;;;24.60;17.60;;;10.40;99.90;;;;;;5095224;28;20394;-68
2023/04/10 08:13:32;;;;;;;26.90;17.30;;;10.50;99.90;;;;;;5095895;28;20451;-68
2023/04/10 08:15:59;;;;;;;26.40;16.80;;;10.60;92.20;;;;;;5095849;28;20414;-68
2023/04/10 08:18:24;;;;;;;24.47;17.17;;;10.70;92.30;;;;;;5095785;28;20165;-68
2023/04/10 08:20:50;;;;;;;29.13;17.40;;;10.90;92.40;;;;;;5094692;28;20403;-69
2023/04/10 08:23:16;;;;;;;23.73;17.47;;;11.10;75.20;;;;;;5095688;28;20190;-68
2023/04/10 08:25:42;;;;;;;23.80;16.57;;;11.20;61.70;;;;;;5095839;28;20170;-70
2023/04/10 08:28:07;;;;;;;26.13;15.37;;;11.20;52.20;;;;;;5095711;28;20166;-70
2023/04/10 08:30:33;;;;;;;23.00;16.27;;;11.40;56.10;;;;;;5094582;28;20719;-69
2023/04/10 08:32:59;;;;;;;22.40;15.20;;;11.50;46.80;;;;;;5095544;28;20209;-70
2023/04/10 08:35:24;;;;;;;24.63;16.80;;;11.70;39.30;;;;;;5095533;28;20185;-71
2023/04/10 08:37:50;;;;;;;20.77;15.30;;;11.80;29.60;;;;;;5095483;28;20192;-69
2023/04/10 08:40:16;;;;;;;27.57;17.83;;;11.90;27.70;;;;;;5079824;28;20174;-67
2023/04/10 08:42:42;;;;;;;22.40;14.67;;;12.00;16.30;;;;;;5074891;28;20236;-69
2023/04/10 08:45:08;;;;;;;22.53;15.37;;;12.10;9.40;;;;;;5074822;28;20185;-69
2023/04/10 08:47:38;;;;;;;24.20;15.30;;;12.20;1.00;;;;;;5075288;28;20181;-68
2023/04/10 08:50:09;;;;;;;27.07;16.40;;;12.30;1.00;;;;;;5073951;28;20825;-69
2023/04/10 08:52:41;;;;;;;24.47;16.57;;;12.50;1.00;;;;;;5074611;28;20459;-69
2023/04/10 08:55:09;;;;;;;24.37;16.70;;;12.60;1.00;;;;;;5074846;28;20407;-69
2023/04/10 08:57:37;;;;;;;21.47;15.43;;;12.70;1.00;;;;;;5074564;28;20396;-69
2023/04/10 09:00:04;;;;;;;19.10;15.67;;;12.90;1.00;;;;;;5074407;28;20484;-69
2023/04/10 09:02:30;;;;;;;21.10;15.30;;;13.10;1.00;;;;;;5074765;28;20429;-69
2023/04/10 09:04:59;;;;;;;21.67;14.63;;;13.20;1.00;;;;;;5074807;28;20462;-69
2023/04/10 09:07:26;;;;;;;21.67;15.60;;;13.30;1.00;;;;;;5074713;28;20220;-69
2023/04/10 09:09:52;;;;;;;21.50;15.07;;;13.60;1.00;;;;;;5074612;28;20409;-68
2023/04/10 09:12:18;;;;;;;19.53;15.50;;;13.70;1.00;;;;;;5073970;28;20434;-68
2023/04/10 09:14:44;;;;;;;25.07;16.73;;;13.80;1.00;;;;;;5074297;28;20178;-69
2023/04/10 09:17:17;;;;;;;20.90;13.97;;;14.10;1.00;;;;;;5074368;28;20881;-69
2023/04/10 09:19:51;;;;;;;19.50;15.10;;;14.30;1.00;;;;;;5074517;28;20885;-70
2023/04/10 09:22:17;;;;;;;21.27;15.47;;;14.70;1.00;;;;;;5073922;28;20420;-70
2023/04/10 09:24:45;;;;;;;21.83;15.40;;;15.00;1.00;;;;;;5074144;28;20401;-69
2023/04/10 09:27:30;;;;;;;18.43;15.03;;;15.40;1.00;;;;;;5074225;28;20416;-70
2023/04/10 09:29:56;;;;;;;19.97;14.53;;;15.90;1.00;;;;;;5073883;28;20426;-70
2023/04/10 09:32:54;;;;;;;18.07;14.07;;;16.20;1.00;;;;;;5073211;28;20999;-70
2023/04/10 09:35:20;;;;;;;19.27;14.60;;;16.70;1.00;;;;;;5054590;28;20425;-70
2023/04/10 09:37:46;;;;;;;19.00;12.90;;;16.60;1.00;;;;;;5074135;28;20455;-70
2023/04/10 09:40:27;;;;;;;18.47;14.33;;;16.70;1.00;;;;;;5055484;28;20812;-70
2023/04/10 09:42:54;;;;;;;23.80;13.90;;;16.90;1.00;;;;;;5073855;28;20194;-70
2023/04/10 09:45:53;;;;;;;20.30;14.90;;;17.20;1.00;;;;;;5073782;28;20507;-70
2023/04/10 09:48:20;;;;;;;15.67;12.80;;;17.10;1.00;;;;;;5073745;28;20411;-70
2023/04/10 09:50:47;;;;;;;20.67;14.77;;;17.40;1.00;;;;;;5073131;28;20913;-70
2023/04/10 09:53:20;;;;;;;19.70;13.10;;;17.70;1.00;;;;;;5073544;28;20459;-70
2023/04/10 09:55:48;;;;;;;18.57;13.50;;;17.80;1.00;;;;;;5073799;28;20405;-70
2023/04/10 09:58:15;;;;;;;15.10;12.13;;;18.00;1.00;;;;;;5073693;28;20411;-70
2023/04/10 10:00:47;;;;;;;18.10;13.53;;;18.30;1.00;;;;;;5072840;28;20491;-71
2023/04/10 10:03:19;;;;;;;15.43;12.80;;;18.40;1.00;;;;;;5054731;28;20782;-70
2023/04/10 10:05:50;;;;;;;16.80;13.53;;;18.40;1.00;;;;;;5073084;28;20761;-70
2023/04/10 10:08:23;;;;;;;13.87;12.37;;;18.50;1.00;;;;;;5055757;28;20424;-70
2023/04/10 10:14:05;;;;;;;15.30;13.00;;;18.40;1.00;;;;;;5073747;28;20395;-69
2023/04/10 10:16:38;;;;;;;15.27;12.43;;;18.70;1.00;;;;;;5073419;28;20397;-70
2023/04/10 10:19:25;;;;;;;15.17;12.83;;;19.00;1.00;;;;;;5073318;28;20395;-70
2023/04/10 10:21:52;;;;;;;14.37;11.90;;;19.10;1.00;;;;;;5072406;28;20424;-70
2023/04/10 10:24:20;;;;;;;16.17;12.50;;;18.90;1.00;;;;;;5055165;28;20773;-70
2023/04/10 10:26:47;;;;;;;16.23;11.90;;;19.30;1.00;;;;;;5073262;28;20395;-70
2023/04/10 10:29:18;;;;;;;13.37;11.93;;;19.50;1.00;;;;;;5073108;28;20956;-70
2023/04/10 10:31:45;;;;;;;16.07;12.13;;;19.40;1.00;;;;;;5072220;28;20416;-70
2023/04/10 10:34:12;;;;;;;17.00;13.33;;;19.50;1.00;;;;;;5055331;28;20400;-70
2023/04/10 10:36:39;;;;;;;16.53;13.30;;;19.50;1.00;;;;;;5073135;28;20404;-70
2023/04/10 10:39:26;;;;;;;13.43;12.00;;;19.70;1.00;;;;;;5071540;28;20506;-70
2023/04/10 10:42:13;;;;;;;13.97;11.80;;;20.10;1.00;;;;;;5054306;28;20428;-71
2023/04/10 10:45:07;;;;;;;12.13;10.73;;;20.60;1.00;;;;;;5055356;28;20415;-70
2023/04/10 10:47:37;;;;;;;13.90;11.20;;;20.80;1.00;;;;;;5072576;28;20427;-70
2023/04/10 10:50:03;;;;;;;12.00;10.70;;;20.90;1.00;;;;;;5072560;28;20407;-71
2023/04/10 10:53:05;;;;;;;14.30;12.80;;;21.00;1.00;;;;;;5054637;28;20539;-71
2023/04/10 10:55:34;;;;;;;14.77;12.10;;;21.30;1.00;;;;;;4991433;28;20430;-70
2023/04/10 10:58:05;;;;;;;12.50;10.43;;;21.20;1.00;;;;;;5060921;28;20416;-70
2023/04/10 11:00:49;;;;;;;14.07;10.50;;;21.30;1.00;;;;;;5072222;28;20726;-70
2023/04/10 11:03:15;;;;;;;11.57;10.37;;;21.40;1.00;;;;;;5072758;28;20440;-70
2023/04/10 11:05:58;;;;;;;13.63;11.63;;;21.10;1.00;;;;;;5072800;28;20922;-70
2023/04/10 11:08:43;;;;;;;10.80;9.70;;;21.40;1.00;;;;;;5072889;28;20177;-70
2023/04/10 11:11:14;;;;;;;11.67;9.37;;;21.50;1.00;;;;;;5072199;28;20382;-70
2023/04/10 11:14:03;;;;;;;12.93;10.20;;;21.80;1.00;;;;;;5056428;28;20810;-71
2023/04/10 11:16:32;;;;;;;10.07;8.87;;;21.70;1.00;;;;;;5061110;28;20768;-70
2023/04/10 11:19:03;;;;;;;10.63;9.47;;;21.90;1.00;;;;;;5076917;28;20585;-69
2023/04/10 11:21:30;;;;;;;10.70;9.60;;;22.10;1.00;;;;;;5076058;28;20396;-70
2023/04/10 11:23:55;;;;;;;9.47;8.57;;;22.30;1.00;;;;;;5076502;28;20396;-70
2023/04/10 11:26:37;;;;;;;11.53;9.30;;;22.10;1.00;;;;;;5076667;28;20835;-70
2023/04/10 11:29:28;;;;;;;11.00;9.57;;;22.30;1.00;;;;;;5076733;28;20168;-70
2023/04/10 11:31:55;;;;;;;11.40;9.10;;;22.10;1.00;;;;;;5074941;28;20467;-71
2023/04/10 11:34:21;;;;;;;11.43;9.93;;;22.10;1.00;;;;;;5058316;28;20809;-70
2023/04/10 11:36:47;;;;;;;10.63;9.23;;;22.50;1.00;;;;;;5076446;28;20757;-70
2023/04/10 11:39:19;;;;;;;12.80;10.50;;;22.60;1.00;;;;;;5076399;28;20396;-71
2023/04/10 11:41:50;;;;;;;11.03;9.47;;;23.10;1.00;;;;;;5057643;28;20222;-70
2023/04/10 11:44:27;;;;;;;12.43;9.80;;;23.50;1.00;;;;;;5076258;28;20400;-70
2023/04/10 11:46:54;;;;;;;13.03;9.97;;;23.40;1.00;;;;;;5076308;28;20396;-70
2023/04/10 11:49:22;;;;;;;10.47;9.07;;;22.90;1.00;;;;;;5076174;28;20396;-70
2023/04/10 11:51:49;;;;;;;11.33;9.60;;;22.40;1.00;;;;;;5075221;28;20428;-70
2023/04/10 11:54:17;;;;;;;10.10;8.80;;;22.50;1.00;;;;;;5075836;28;20897;-70
2023/04/10 11:56:53;;;;;;;12.07;9.30;;;22.50;1.00;;;;;;5075983;28;20397;-70
2023/04/10 11:59:19;;;;;;;11.07;9.27;;;22.40;1.00;;;;;;5075936;28;20397;-70
2023/04/10 12:01:46;;;;;;;12.50;10.20;;;22.60;1.00;;;;;;5075172;28;20485;-70
2023/04/10 12:04:16;;;;;;;9.97;8.30;;;22.40;1.00;;;;;;5075799;28;20182;-70
2023/04/10 12:06:55;;;;;;;13.77;10.07;;;22.40;1.00;;;;;;5075756;28;20425;-69
2023/04/10 12:09:22;;;;;;;10.60;9.33;;;22.10;1.00;;;;;;5075758;28;20404;-70
2023/04/10 12:11:55;;;;;;;11.27;10.07;;;21.90;1.00;;;;;;5075020;28;20440;-70
2023/04/10 12:14:22;;;;;;;10.87;9.77;;;21.50;1.00;;;;;;5075496;28;20787;-70
2023/04/10 12:16:51;;;;;;;9.63;8.73;;;21.60;1.00;;;;;;5057951;28;20421;-70
2023/04/10 12:19:18;;;;;;;9.50;8.50;;;21.20;1.00;;;;;;5075636;28;20912;-70
2023/04/10 12:21:45;;;;;;;14.07;11.93;;;21.20;1.00;;;;;;5074856;28;20425;-70
2023/04/10 12:24:11;;;;;;;16.43;11.07;;;21.20;1.00;;;;;;5075412;28;20442;-70
2023/04/10 12:26:37;;;;;;;12.80;9.87;;;21.20;1.00;;;;;;5074923;28;20420;-70
2023/04/10 12:29:05;;;;;;;10.63;9.50;;;21.20;1.00;;;;;;5057895;28;20442;-69
2023/04/10 12:31:35;;;;;;;9.00;8.20;;;20.90;1.00;;;;;;5074599;28;20167;-70
2023/04/10 12:34:04;;;;;;;8.97;8.07;;;20.60;1.00;;;;;;5075296;28;20448;-70
2023/04/10 12:36:33;;;;;;;8.23;7.43;;;20.80;1.00;;;;;;5075184;28;20841;-70
2023/04/10 12:39:00;;;;;;;9.57;8.50;;;20.90;1.00;;;;;;5075388;28;20898;-70
2023/04/10 12:41:29;;;;;;;8.47;7.67;;;20.90;99.90;;;;;;5074561;28;20455;-70
2023/04/10 12:44:10;;;;;;;13.77;10.80;;;20.90;1.00;;;;;;5075256;28;20405;-70
2023/04/10 12:46:36;;;;;;;9.73;8.73;;;21.00;1.00;;;;;;5075053;28;20412;-70
2023/04/10 12:49:10;;;;;;;8.63;7.53;;;21.20;1.00;;;;;;5074926;28;20400;-69